sensor_id;sensor_type;location;lat;lon;timestamp;pressure;altitude;pressure_sealevel;temperature;humidity
22259;BME280;11298;46.034;14.496;2022-12-13T00:02:02;97842.41;;;-2.11;84.40
22259;BME280;11298;46.034;14.496;2022-12-13T00:04:28;97843.13;;;-2.09;84.41
22259;BME280;11298;46.034;14.496;2022-12-13T00:06:56;97837.19;;;-2.03;84.37
22259;BME280;11298;46.034;14.496;2022-12-13T00:09:23;97839.44;;;-1.98;84.52
22259;BME280;11298;46.034;14.496;2022-12-13T00:11:50;97831.00;;;-1.94;84.50
22259;BME280;11298;46.034;14.496;2022-12-13T00:14:17;97827.78;;;-1.88;84.54
22259;BME280;11298;46.034;14.496;2022-12-13T00:16:44;97833.78;;;-1.86;84.52
22259;BME280;11298;46.034;14.496;2022-12-13T00:19:12;97832.94;;;-1.86;84.50
22259;BME280;11298;46.034;14.496;2022-12-13T00:21:40;97835.47;;;-1.85;84.69
22259;BME280;11298;46.034;14.496;2022-12-13T00:24:07;97839.13;;;-1.86;84.62
22259;BME280;11298;46.034;14.496;2022-12-13T00:26:34;97834.63;;;-1.85;84.73
22259;BME280;11298;46.034;14.496;2022-12-13T00:29:02;97842.63;;;-1.85;84.73
22259;BME280;11298;46.034;14.496;2022-12-13T00:31:30;97839.13;;;-1.86;84.68
22259;BME280;11298;46.034;14.496;2022-12-13T00:34:19;97840.38;;;-1.90;84.94
22259;BME280;11298;46.034;14.496;2022-12-13T00:36:46;97844.31;;;-1.94;85.26
22259;BME280;11298;46.034;14.496;2022-12-13T00:39:14;97843.50;;;-2.04;85.35
22259;BME280;11298;46.034;14.496;2022-12-13T00:41:42;97834.97;;;-2.08;85.49
22259;BME280;11298;46.034;14.496;2022-12-13T00:44:12;97842.78;;;-2.06;85.86
22259;BME280;11298;46.034;14.496;2022-12-13T00:46:39;97849.09;;;-2.07;85.71
22259;BME280;11298;46.034;14.496;2022-12-13T00:49:08;97848.94;;;-2.06;85.84
22259;BME280;11298;46.034;14.496;2022-12-13T00:51:35;97847.81;;;-2.03;86.05
22259;BME280;11298;46.034;14.496;2022-12-13T00:54:02;97844.47;;;-2.05;85.87
22259;BME280;11298;46.034;14.496;2022-12-13T00:56:29;97842.78;;;-2.06;86.10
22259;BME280;11298;46.034;14.496;2022-12-13T00:58:56;97844.78;;;-2.08;86.09
22259;BME280;11298;46.034;14.496;2022-12-13T01:01:27;97837.25;;;-2.13;86.52
22259;BME280;11298;46.034;14.496;2022-12-13T01:03:55;97840.44;;;-2.09;86.65
22259;BME280;11298;46.034;14.496;2022-12-13T01:06:34;97838.03;;;-2.03;86.45
22259;BME280;11298;46.034;14.496;2022-12-13T01:09:03;97835.63;;;-1.96;86.26
22259;BME280;11298;46.034;14.496;2022-12-13T01:11:30;97844.31;;;-1.94;86.42
22259;BME280;11298;46.034;14.496;2022-12-13T01:13:57;97843.34;;;-1.93;86.54
22259;BME280;11298;46.034;14.496;2022-12-13T01:16:24;97849.06;;;-1.97;86.48
22259;BME280;11298;46.034;14.496;2022-12-13T01:18:51;97841.81;;;-2.05;86.78
22259;BME280;11298;46.034;14.496;2022-12-13T01:21:18;97845.06;;;-2.11;87.07
22259;BME280;11298;46.034;14.496;2022-12-13T01:23:47;97842.00;;;-2.16;87.37
22259;BME280;11298;46.034;14.496;2022-12-13T01:26:16;97833.59;;;-2.21;87.51
22259;BME280;11298;46.034;14.496;2022-12-13T01:28:43;97836.56;;;-2.24;87.55
22259;BME280;11298;46.034;14.496;2022-12-13T01:31:11;97837.25;;;-2.22;87.78
22259;BME280;11298;46.034;14.496;2022-12-13T01:33:40;97835.16;;;-2.19;87.75
22259;BME280;11298;46.034;14.496;2022-12-13T01:36:08;97837.25;;;-2.22;87.77
22259;BME280;11298;46.034;14.496;2022-12-13T01:38:36;97837.25;;;-2.22;87.88
22259;BME280;11298;46.034;14.496;2022-12-13T01:41:04;97828.56;;;-2.24;87.90
22259;BME280;11298;46.034;14.496;2022-12-13T01:46:09;97832.94;;;-2.33;88.06
22259;BME280;11298;46.034;14.496;2022-12-13T01:48:37;97831.38;;;-2.36;88.42
22259;BME280;11298;46.034;14.496;2022-12-13T01:51:06;97830.69;;;-2.38;88.38
22259;BME280;11298;46.034;14.496;2022-12-13T01:53:36;97822.44;;;-2.34;88.39
22259;BME280;11298;46.034;14.496;2022-12-13T01:56:06;97825.66;;;-2.31;88.58
22259;BME280;11298;46.034;14.496;2022-12-13T01:58:34;97820.03;;;-2.28;88.45
22259;BME280;11298;46.034;14.496;2022-12-13T02:01:02;97823.66;;;-2.19;88.47
22259;BME280;11298;46.034;14.496;2022-12-13T02:03:29;97837.66;;;-2.17;88.35
22259;BME280;11298;46.034;14.496;2022-12-13T02:06:09;97827.03;;;-2.17;88.12
22259;BME280;11298;46.034;14.496;2022-12-13T02:08:38;97826.75;;;-2.14;88.38
22259;BME280;11298;46.034;14.496;2022-12-13T02:11:06;97825.50;;;-2.20;88.22
22259;BME280;11298;46.034;14.496;2022-12-13T02:13:37;97814.84;;;-2.20;88.55
22259;BME280;11298;46.034;14.496;2022-12-13T02:16:53;97820.72;;;-2.16;88.28
22259;BME280;11298;46.034;14.496;2022-12-13T02:21:32;97818.84;;;-2.06;88.18
22259;BME280;11298;46.034;14.496;2022-12-13T02:34:29;97829.41;;;-2.14;88.30
22259;BME280;11298;46.034;14.496;2022-12-13T02:37:04;97837.25;;;-2.22;88.54
22259;BME280;11298;46.034;14.496;2022-12-13T02:40:06;97838.81;;;-2.29;88.87
22259;BME280;11298;46.034;14.496;2022-12-13T02:42:33;97830.13;;;-2.31;88.74
22259;BME280;11298;46.034;14.496;2022-12-13T02:45:07;97833.06;;;-2.34;88.94
22259;BME280;11298;46.034;14.496;2022-12-13T02:47:38;97830.53;;;-2.36;88.84
22259;BME280;11298;46.034;14.496;2022-12-13T02:50:07;97823.28;;;-2.34;89.06
22259;BME280;11298;46.034;14.496;2022-12-13T02:52:35;97822.00;;;-2.40;88.96
22259;BME280;11298;46.034;14.496;2022-12-13T02:55:06;97833.34;;;-2.38;89.00
22259;BME280;11298;46.034;14.496;2022-12-13T02:57:38;97820.75;;;-2.36;88.91
22259;BME280;11298;46.034;14.496;2022-12-13T03:00:18;97820.47;;;-2.32;89.19
22259;BME280;11298;46.034;14.496;2022-12-13T03:11:08;97818.50;;;-2.30;88.72
22259;BME280;11298;46.034;14.496;2022-12-13T03:18:50;97814.31;;;-2.23;88.87
22259;BME280;11298;46.034;14.496;2022-12-13T03:21:20;97814.16;;;-2.22;88.75
22259;BME280;11298;46.034;14.496;2022-12-13T03:23:47;97806.47;;;-2.25;88.76
22259;BME280;11298;46.034;14.496;2022-12-13T03:26:15;97811.81;;;-2.34;88.66
22259;BME280;11298;46.034;14.496;2022-12-13T03:28:43;97817.13;;;-2.34;88.99
22259;BME280;11298;46.034;14.496;2022-12-13T03:31:10;97809.56;;;-2.29;88.69
22259;BME280;11298;46.034;14.496;2022-12-13T03:33:37;97816.25;;;-2.25;88.59
22259;BME280;11298;46.034;14.496;2022-12-13T03:36:04;97811.94;;;-2.26;88.58
22259;BME280;11298;46.034;14.496;2022-12-13T03:38:32;97822.13;;;-2.22;88.85
22259;BME280;11298;46.034;14.496;2022-12-13T03:41:00;97812.06;;;-2.18;88.55
22259;BME280;11298;46.034;14.496;2022-12-13T03:43:28;97797.91;;;-2.19;88.67
22259;BME280;11298;46.034;14.496;2022-12-13T03:45:55;97799.75;;;-2.19;88.47
22259;BME280;11298;46.034;14.496;2022-12-13T03:48:22;97788.28;;;-2.20;88.67
22259;BME280;11298;46.034;14.496;2022-12-13T03:50:50;97796.94;;;-2.18;88.48
22259;BME280;11298;46.034;14.496;2022-12-13T03:53:17;97793.00;;;-2.14;88.68
22259;BME280;11298;46.034;14.496;2022-12-13T03:56:00;97796.91;;;-2.08;88.29
22259;BME280;11298;46.034;14.496;2022-12-13T03:58:27;97794.94;;;-2.06;88.44
22259;BME280;11298;46.034;14.496;2022-12-13T04:01:03;97784.28;;;-2.06;88.08
22259;BME280;11298;46.034;14.496;2022-12-13T04:03:29;97784.97;;;-2.04;88.35
22259;BME280;11298;46.034;14.496;2022-12-13T04:05:56;97788.63;;;-2.05;88.24
22259;BME280;11298;46.034;14.496;2022-12-13T04:08:23;97783.16;;;-2.04;88.29
22259;BME280;11298;46.034;14.496;2022-12-13T04:10:50;97779.38;;;-2.01;88.12
22259;BME280;11298;46.034;14.496;2022-12-13T04:13:16;97782.59;;;-1.97;88.30
22259;BME280;11298;46.034;14.496;2022-12-13T04:15:59;97779.78;;;-1.96;88.09
22259;BME280;11298;46.034;14.496;2022-12-13T04:18:26;97779.63;;;-1.94;88.24
22259;BME280;11298;46.034;14.496;2022-12-13T04:20:53;97785.34;;;-1.89;88.22
22259;BME280;11298;46.034;14.496;2022-12-13T04:23:20;97774.56;;;-1.88;88.18
22259;BME280;11298;46.034;14.496;2022-12-13T04:25:46;97778.75;;;-1.85;88.16
22259;BME280;11298;46.034;14.496;2022-12-13T04:28:13;97780.59;;;-1.86;88.24
22259;BME280;11298;46.034;14.496;2022-12-13T04:30:48;97777.22;;;-1.88;88.02
22259;BME280;11298;46.034;14.496;2022-12-13T04:33:22;97779.88;;;-1.88;88.25
22259;BME280;11298;46.034;14.496;2022-12-13T04:35:49;97786.19;;;-1.89;88.05
22259;BME280;11298;46.034;14.496;2022-12-13T04:38:16;97790.69;;;-1.89;88.36
22259;BME280;11298;46.034;14.496;2022-12-13T04:40:43;97779.19;;;-1.90;88.39
22259;BME280;11298;46.034;14.496;2022-12-13T04:43:10;97789.44;;;-1.95;88.18
22259;BME280;11298;46.034;14.496;2022-12-13T04:45:37;97782.59;;;-1.97;88.21
22259;BME280;11298;46.034;14.496;2022-12-13T04:48:04;97785.44;;;-2.09;88.31
22259;BME280;11298;46.034;14.496;2022-12-13T04:50:31;97775.66;;;-2.08;88.66
22259;BME280;11298;46.034;14.496;2022-12-13T04:52:58;97769.63;;;-2.10;88.41
22259;BME280;11298;46.034;14.496;2022-12-13T04:55:25;97770.63;;;-2.11;88.59
22259;BME280;11298;46.034;14.496;2022-12-13T04:57:52;97775.78;;;-2.10;88.48
22259;BME280;11298;46.034;14.496;2022-12-13T05:00:18;97770.16;;;-2.07;88.69
22259;BME280;11298;46.034;14.496;2022-12-13T05:02:47;97761.59;;;-2.00;88.40
22259;BME280;11298;46.034;14.496;2022-12-13T05:05:14;97762.00;;;-1.95;88.41
22259;BME280;11298;46.034;14.496;2022-12-13T05:07:42;97754.31;;;-1.98;88.28
22259;BME280;11298;46.034;14.496;2022-12-13T05:10:11;97756.28;;;-2.00;88.36
22259;BME280;11298;46.034;14.496;2022-12-13T05:12:58;97754.75;;;-2.03;88.54
22259;BME280;11298;46.034;14.496;2022-12-13T05:15:26;97756.34;;;-2.10;88.49
22259;BME280;11298;46.034;14.496;2022-12-13T05:17:53;97748.66;;;-2.13;88.63
22259;BME280;11298;46.034;14.496;2022-12-13T05:20:19;97754.81;;;-2.22;88.53
22259;BME280;11298;46.034;14.496;2022-12-13T05:22:46;97747.69;;;-2.22;88.83
22259;BME280;11298;46.034;14.496;2022-12-13T05:25:13;97748.25;;;-2.18;88.81
22259;BME280;11298;46.034;14.496;2022-12-13T05:27:40;97746.41;;;-2.18;88.65
22259;BME280;11298;46.034;14.496;2022-12-13T05:30:07;97742.91;;;-2.18;88.66
22259;BME280;11298;46.034;14.496;2022-12-13T05:32:34;97741.25;;;-2.19;88.77
22259;BME280;11298;46.034;14.496;2022-12-13T05:35:15;97731.75;;;-2.22;88.70
22259;BME280;11298;46.034;14.496;2022-12-13T05:37:51;97741.25;;;-2.19;88.70
22259;BME280;11298;46.034;14.496;2022-12-13T05:40:30;97741.94;;;-2.17;88.64
22259;BME280;11298;46.034;14.496;2022-12-13T05:42:57;97748.81;;;-2.24;88.47
22259;BME280;11298;46.034;14.496;2022-12-13T05:45:27;97761.13;;;-2.23;88.73
22259;BME280;11298;46.034;14.496;2022-12-13T05:47:54;97745.47;;;-2.26;88.44
22259;BME280;11298;46.034;14.496;2022-12-13T05:50:22;97739.44;;;-2.28;88.78
22259;BME280;11298;46.034;14.496;2022-12-13T05:52:52;97736.78;;;-2.28;88.40
22259;BME280;11298;46.034;14.496;2022-12-13T05:55:19;97742.25;;;-2.30;88.69
22259;BME280;11298;46.034;14.496;2022-12-13T05:57:46;97730.91;;;-2.32;88.44
22259;BME280;11298;46.034;14.496;2022-12-13T06:00:15;97740.16;;;-2.26;88.57
22259;BME280;11298;46.034;14.496;2022-12-13T06:02:57;97746.84;;;-2.22;88.45
22259;BME280;11298;46.034;14.496;2022-12-13T06:05:27;97745.19;;;-2.23;88.60
22259;BME280;11298;46.034;14.496;2022-12-13T06:07:54;97747.00;;;-2.24;88.48
22259;BME280;11298;46.034;14.496;2022-12-13T06:10:23;97743.50;;;-2.24;88.37
22259;BME280;11298;46.034;14.496;2022-12-13T06:12:59;97750.50;;;-2.23;88.45
22259;BME280;11298;46.034;14.496;2022-12-13T06:15:31;97763.78;;;-2.23;88.40
22259;BME280;11298;46.034;14.496;2022-12-13T06:18:00;97757.50;;;-2.22;88.42
22259;BME280;11298;46.034;14.496;2022-12-13T06:20:27;97750.06;;;-2.19;88.58
22259;BME280;11298;46.034;14.496;2022-12-13T06:22:54;97752.97;;;-2.12;88.25
22259;BME280;11298;46.034;14.496;2022-12-13T06:25:20;97752.69;;;-2.09;88.44
22259;BME280;11298;46.034;14.496;2022-12-13T06:27:57;97753.06;;;-2.04;88.32
22259;BME280;11298;46.034;14.496;2022-12-13T06:30:26;97757.13;;;-2.00;88.40
22259;BME280;11298;46.034;14.496;2022-12-13T06:32:54;97759.78;;;-2.00;88.38
22259;BME280;11298;46.034;14.496;2022-12-13T06:35:20;97751.78;;;-2.00;88.30
22259;BME280;11298;46.034;14.496;2022-12-13T06:37:55;97756.81;;;-1.97;88.00
22259;BME280;11298;46.034;14.496;2022-12-13T06:40:28;97759.19;;;-1.94;88.00
22259;BME280;11298;46.034;14.496;2022-12-13T06:42:56;97760.72;;;-1.91;87.99
22259;BME280;11298;46.034;14.496;2022-12-13T06:45:22;97766.72;;;-1.89;88.13
22259;BME280;11298;46.034;14.496;2022-12-13T06:47:49;97760.28;;;-1.87;87.97
22259;BME280;11298;46.034;14.496;2022-12-13T06:50:16;97760.28;;;-1.87;87.85
22259;BME280;11298;46.034;14.496;2022-12-13T06:52:44;97756.50;;;-1.84;87.77
22259;BME280;11298;46.034;14.496;2022-12-13T06:55:12;97772.31;;;-1.83;87.93
22259;BME280;11298;46.034;14.496;2022-12-13T06:57:39;97779.44;;;-1.83;87.81
22259;BME280;11298;46.034;14.496;2022-12-13T07:00:07;97788.13;;;-1.81;87.77
22259;BME280;11298;46.034;14.496;2022-12-13T07:02:34;97783.34;;;-1.78;87.79
22259;BME280;11298;46.034;14.496;2022-12-13T07:05:01;97787.69;;;-1.77;87.76
22259;BME280;11298;46.034;14.496;2022-12-13T07:07:28;97787.53;;;-1.75;87.79
22259;BME280;11298;46.034;14.496;2022-12-13T07:09:56;97795.06;;;-1.71;87.84
22259;BME280;11298;46.034;14.496;2022-12-13T07:12:23;97794.78;;;-1.67;87.54
22259;BME280;11298;46.034;14.496;2022-12-13T07:14:50;97797.84;;;-1.62;87.52
22259;BME280;11298;46.034;14.496;2022-12-13T07:17:17;97807.19;;;-1.58;87.37
22259;BME280;11298;46.034;14.496;2022-12-13T07:19:59;97800.88;;;-1.57;87.50
22259;BME280;11298;46.034;14.496;2022-12-13T07:22:26;97803.41;;;-1.56;87.22
22259;BME280;11298;46.034;14.496;2022-12-13T07:24:53;97797.94;;;-1.54;87.20
22259;BME280;11298;46.034;14.496;2022-12-13T07:27:20;97805.78;;;-1.53;87.15
22259;BME280;11298;46.034;14.496;2022-12-13T07:29:48;97807.44;;;-1.52;87.26
22259;BME280;11298;46.034;14.496;2022-12-13T07:32:15;97801.16;;;-1.51;86.96
22259;BME280;11298;46.034;14.496;2022-12-13T07:34:42;97794.69;;;-1.48;87.19
22259;BME280;11298;46.034;14.496;2022-12-13T07:37:10;97792.72;;;-1.46;87.12
22259;BME280;11298;46.034;14.496;2022-12-13T07:39:57;97801.41;;;-1.44;86.85
22259;BME280;11298;46.034;14.496;2022-12-13T07:42:30;97813.44;;;-1.40;86.81
22259;BME280;11298;46.034;14.496;2022-12-13T07:44:56;97829.91;;;-1.37;86.69
22259;BME280;11298;46.034;14.496;2022-12-13T07:47:27;97817.13;;;-1.33;86.70
22259;BME280;11298;46.034;14.496;2022-12-13T07:49:54;97814.88;;;-1.28;86.48
22259;BME280;11298;46.034;14.496;2022-12-13T07:52:21;97807.81;;;-1.19;86.44
22259;BME280;11298;46.034;14.496;2022-12-13T07:54:48;97797.78;;;-1.08;86.41
22259;BME280;11298;46.034;14.496;2022-12-13T07:57:15;97798.38;;;-0.96;86.28
22259;BME280;11298;46.034;14.496;2022-12-13T08:02:40;97798.47;;;-0.26;85.70
22259;BME280;11298;46.034;14.496;2022-12-13T08:05:07;97798.59;;;-0.10;85.31
22259;BME280;11298;46.034;14.496;2022-12-13T08:07:52;97808.81;;;-0.06;85.29
22259;BME280;11298;46.034;14.496;2022-12-13T08:10:19;97809.19;;;-0.01;85.04
22259;BME280;11298;46.034;14.496;2022-12-13T08:12:46;97803.84;;;-0.01;84.87
22259;BME280;11298;46.034;14.496;2022-12-13T08:15:13;97807.97;;;-0.06;85.01
22259;BME280;11298;46.034;14.496;2022-12-13T08:17:40;97810.25;;;-0.11;84.95
22259;BME280;11298;46.034;14.496;2022-12-13T08:20:06;97807.91;;;-0.14;84.74
22259;BME280;11298;46.034;14.496;2022-12-13T08:22:33;97811.03;;;-0.19;84.87
22259;BME280;11298;46.034;14.496;2022-12-13T08:25:01;97806.84;;;-0.21;84.74
22259;BME280;11298;46.034;14.496;2022-12-13T08:27:28;97812.50;;;-0.24;84.69
22259;BME280;11298;46.034;14.496;2022-12-13T08:29:55;97804.81;;;-0.27;84.57
22259;BME280;11298;46.034;14.496;2022-12-13T08:32:22;97802.75;;;-0.34;84.56
22259;BME280;11298;46.034;14.496;2022-12-13T08:34:49;97807.25;;;-0.34;84.69
22259;BME280;11298;46.034;14.496;2022-12-13T08:37:15;97810.28;;;-0.29;84.66
22259;BME280;11298;46.034;14.496;2022-12-13T08:39:43;97810.97;;;-0.27;84.31
22259;BME280;11298;46.034;14.496;2022-12-13T08:42:11;97800.84;;;-0.23;84.51
22259;BME280;11298;46.034;14.496;2022-12-13T08:44:43;97811.66;;;-0.25;84.33
22259;BME280;11298;46.034;14.496;2022-12-13T08:47:10;97800.84;;;-0.23;84.46
22259;BME280;11298;46.034;14.496;2022-12-13T08:49:36;97803.88;;;-0.18;84.35
22259;BME280;11298;46.034;14.496;2022-12-13T08:52:03;97798.22;;;-0.15;84.31
22259;BME280;11298;46.034;14.496;2022-12-13T08:54:31;97798.06;;;-0.14;84.15
22259;BME280;11298;46.034;14.496;2022-12-13T08:57:00;97811.25;;;-0.12;83.98
22259;BME280;11298;46.034;14.496;2022-12-13T08:59:27;97804.94;;;-0.11;84.16
22259;BME280;11298;46.034;14.496;2022-12-13T09:01:54;97803.63;;;-0.07;84.19
22259;BME280;11298;46.034;14.496;2022-12-13T09:04:28;97809.94;;;-0.08;83.92
22259;BME280;11298;46.034;14.496;2022-12-13T09:06:57;97812.63;;;-0.08;84.06
22259;BME280;11298;46.034;14.496;2022-12-13T09:09:27;97809.28;;;-0.10;84.02
22259;BME280;11298;46.034;14.496;2022-12-13T09:11:55;97810.63;;;-0.06;83.93
22259;BME280;11298;46.034;14.496;2022-12-13T09:14:25;97814.50;;;-0.01;83.70
22259;BME280;11298;46.034;14.496;2022-12-13T09:17:00;97798.31;;;0.01;83.93
22259;BME280;11298;46.034;14.496;2022-12-13T09:19:29;97798.84;;;0.05;83.82
22259;BME280;11298;46.034;14.496;2022-12-13T09:22:02;97802.72;;;0.10;83.59
22259;BME280;11298;46.034;14.496;2022-12-13T09:24:29;97804.75;;;0.16;83.35
22259;BME280;11298;46.034;14.496;2022-12-13T09:27:05;97804.13;;;0.22;83.58
22259;BME280;11298;46.034;14.496;2022-12-13T09:29:35;97805.16;;;0.29;83.26
22259;BME280;11298;46.034;14.496;2022-12-13T09:32:02;97803.66;;;0.35;83.34
22259;BME280;11298;46.034;14.496;2022-12-13T09:34:30;97798.16;;;0.28;83.06
22259;BME280;11298;46.034;14.496;2022-12-13T09:36:58;97795.81;;;0.25;83.30
22259;BME280;11298;46.034;14.496;2022-12-13T09:39:27;97791.97;;;0.28;83.23
22259;BME280;11298;46.034;14.496;2022-12-13T09:41:57;97802.88;;;0.35;83.23
22259;BME280;11298;46.034;14.496;2022-12-13T09:44:30;97785.81;;;0.36;83.09
22259;BME280;11298;46.034;14.496;2022-12-13T09:47:16;97780.16;;;0.39;82.94
22259;BME280;11298;46.034;14.496;2022-12-13T09:49:51;97769.50;;;0.47;82.58
22259;BME280;11298;46.034;14.496;2022-12-13T09:52:20;97770.34;;;0.47;82.69
22259;BME280;11298;46.034;14.496;2022-12-13T09:54:49;97779.69;;;0.43;82.36
22259;BME280;11298;46.034;14.496;2022-12-13T09:57:19;97768.78;;;0.37;82.71
22259;BME280;11298;46.034;14.496;2022-12-13T10:00:03;97768.78;;;0.37;82.29
22259;BME280;11298;46.034;14.496;2022-12-13T10:02:41;97767.81;;;0.38;82.46
22259;BME280;11298;46.034;14.496;2022-12-13T10:05:43;97761.81;;;0.44;82.13
22259;BME280;11298;46.034;14.496;2022-12-13T10:08:15;97753.81;;;0.44;82.20
22259;BME280;11298;46.034;14.496;2022-12-13T10:10:43;97763.00;;;0.49;81.95
22259;BME280;11298;46.034;14.496;2022-12-13T10:13:24;97765.56;;;0.59;82.02
22259;BME280;11298;46.034;14.496;2022-12-13T10:15:53;97764.25;;;0.71;81.94
22259;BME280;11298;46.034;14.496;2022-12-13T10:18:30;97759.75;;;0.80;81.85
22259;BME280;11298;46.034;14.496;2022-12-13T10:20:59;97754.59;;;0.86;81.65
22259;BME280;11298;46.034;14.496;2022-12-13T10:23:26;97755.59;;;0.85;81.57
22259;BME280;11298;46.034;14.496;2022-12-13T10:26:13;97755.59;;;0.85;81.47
22259;BME280;11298;46.034;14.496;2022-12-13T10:28:50;97755.59;;;0.85;81.36
22259;BME280;11298;46.034;14.496;2022-12-13T10:31:26;97744.91;;;0.85;81.10
22259;BME280;11298;46.034;14.496;2022-12-13T10:33:54;97748.75;;;0.83;81.30
22259;BME280;11298;46.034;14.496;2022-12-13T10:36:34;97744.06;;;0.85;81.13
22259;BME280;11298;46.034;14.496;2022-12-13T10:39:04;97742.06;;;0.87;81.09
22259;BME280;11298;46.034;14.496;2022-12-13T10:44:08;97735.22;;;0.84;81.03
22259;BME280;11298;46.034;14.496;2022-12-13T10:46:35;97722.22;;;0.89;80.87
22259;BME280;11298;46.034;14.496;2022-12-13T10:49:12;97729.56;;;0.95;80.69
22259;BME280;11298;46.034;14.496;2022-12-13T10:51:41;97721.72;;;1.02;80.67
22259;BME280;11298;46.034;14.496;2022-12-13T10:54:28;97720.53;;;1.05;80.56
22259;BME280;11298;46.034;14.496;2022-12-13T10:57:03;97725.38;;;1.09;80.54
22259;BME280;11298;46.034;14.496;2022-12-13T10:59:32;97727.22;;;1.09;80.60
22259;BME280;11298;46.034;14.496;2022-12-13T11:02:01;97730.91;;;1.08;80.63
22259;BME280;11298;46.034;14.496;2022-12-13T11:04:30;97730.91;;;1.08;80.46
22259;BME280;11298;46.034;14.496;2022-12-13T11:07:05;97728.06;;;1.09;80.58
22259;BME280;11298;46.034;14.496;2022-12-13T11:09:44;97736.75;;;1.11;80.42
22259;BME280;11298;46.034;14.496;2022-12-13T11:12:22;97718.53;;;1.07;80.60
22259;BME280;11298;46.034;14.496;2022-12-13T11:14:52;97729.59;;;1.04;80.66
22259;BME280;11298;46.034;14.496;2022-12-13T11:17:21;97722.56;;;1.03;80.49
22259;BME280;11298;46.034;14.496;2022-12-13T11:19:49;97713.56;;;1.04;80.54
22259;BME280;11298;46.034;14.496;2022-12-13T11:22:18;97720.22;;;0.99;80.35
22259;BME280;11298;46.034;14.496;2022-12-13T11:24:49;97722.41;;;0.96;80.45
22259;BME280;11298;46.034;14.496;2022-12-13T11:32:41;97731.56;;;0.85;80.42
22259;BME280;11298;46.034;14.496;2022-12-13T11:35:14;97723.69;;;0.84;80.52
22259;BME280;11298;46.034;14.496;2022-12-13T11:37:51;97728.88;;;0.85;80.43
22259;BME280;11298;46.034;14.496;2022-12-13T11:43:24;97713.19;;;0.90;80.21
22259;BME280;11298;46.034;14.496;2022-12-13T11:45:55;97709.53;;;0.91;79.96
22259;BME280;11298;46.034;14.496;2022-12-13T11:50:51;97704.84;;;0.93;79.83
22259;BME280;11298;46.034;14.496;2022-12-13T11:53:31;97706.53;;;0.94;79.92
22259;BME280;11298;46.034;14.496;2022-12-13T11:58:38;97695.47;;;0.89;79.94
22259;BME280;11298;46.034;14.496;2022-12-13T12:01:31;97688.31;;;0.90;80.03
22259;BME280;11298;46.034;14.496;2022-12-13T12:06:34;97686.47;;;0.90;80.06
22259;BME280;11298;46.034;14.496;2022-12-13T12:09:12;97691.81;;;0.90;79.80
22259;BME280;11298;46.034;14.496;2022-12-13T12:11:44;97679.63;;;0.88;79.86
22259;BME280;11298;46.034;14.496;2022-12-13T12:16:48;97674.44;;;0.86;79.76
22259;BME280;11298;46.034;14.496;2022-12-13T12:19:18;97669.75;;;0.88;79.71
22259;BME280;11298;46.034;14.496;2022-12-13T12:30:02;97663.06;;;0.76;79.51
22259;BME280;11298;46.034;14.496;2022-12-13T12:43:25;97657.69;;;0.44;80.37
22259;BME280;11298;46.034;14.496;2022-12-13T12:51:31;97640.63;;;0.37;80.59
22259;BME280;11298;46.034;14.496;2022-12-13T12:56:48;97656.50;;;0.30;80.83
22259;BME280;11298;46.034;14.496;2022-12-13T12:59:38;97663.34;;;0.32;80.82
22259;BME280;11298;46.034;14.496;2022-12-13T13:02:15;97660.31;;;0.36;80.67
22259;BME280;11298;46.034;14.496;2022-12-13T13:04:47;97657.16;;;0.40;80.75
22259;BME280;11298;46.034;14.496;2022-12-13T13:07:23;97669.84;;;0.38;80.99
22259;BME280;11298;46.034;14.496;2022-12-13T13:09:51;97665.34;;;0.39;81.02
22259;BME280;11298;46.034;14.496;2022-12-13T13:12:21;97651.31;;;0.37;80.99
22259;BME280;11298;46.034;14.496;2022-12-13T13:14:56;97666.66;;;0.26;81.21
22259;BME280;11298;46.034;14.496;2022-12-13T13:22:37;97651.53;;;0.01;81.75
22259;BME280;11298;46.034;14.496;2022-12-13T13:25:12;97651.53;;;0.01;82.10
22259;BME280;11298;46.034;14.496;2022-12-13T13:27:47;97661.91;;;0.04;81.88
22259;BME280;11298;46.034;14.496;2022-12-13T13:30:20;97673.94;;;0.08;81.80
22259;BME280;11298;46.034;14.496;2022-12-13T13:32:47;97674.97;;;0.15;81.79
22259;BME280;11298;46.034;14.496;2022-12-13T13:37:59;97679.66;;;0.21;81.80
22259;BME280;11298;46.034;14.496;2022-12-13T13:43:01;97667.16;;;0.22;81.84
22259;BME280;11298;46.034;14.496;2022-12-13T13:45:28;97667.00;;;0.23;81.86
22259;BME280;11298;46.034;14.496;2022-12-13T13:50:38;97677.34;;;0.26;81.79
22259;BME280;11298;46.034;14.496;2022-12-13T13:53:24;97677.97;;;0.20;81.66
22259;BME280;11298;46.034;14.496;2022-12-13T14:17:56;97656.88;;;0.01;82.59
22259;BME280;11298;46.034;14.496;2022-12-13T14:20:43;97655.06;;;0.02;82.66
22259;BME280;11298;46.034;14.496;2022-12-13T14:23:31;97649.06;;;-0.01;82.62
22259;BME280;11298;46.034;14.496;2022-12-13T14:26:14;97651.22;;;-0.04;82.78
22259;BME280;11298;46.034;14.496;2022-12-13T14:31:15;97645.22;;;-0.06;82.99
22259;BME280;11298;46.034;14.496;2022-12-13T14:33:48;97651.69;;;-0.09;83.23
22259;BME280;11298;46.034;14.496;2022-12-13T14:36:24;97656.84;;;-0.15;83.31
22259;BME280;11298;46.034;14.496;2022-12-13T14:38:58;97645.50;;;-0.17;83.25
22259;BME280;11298;46.034;14.496;2022-12-13T14:41:25;97638.47;;;-0.18;83.16
22259;BME280;11298;46.034;14.496;2022-12-13T14:43:52;97643.13;;;-0.20;83.38
22259;BME280;11298;46.034;14.496;2022-12-13T14:46:19;97642.31;;;-0.21;83.44
22259;BME280;11298;46.034;14.496;2022-12-13T14:48:49;97642.81;;;-0.17;83.48
22259;BME280;11298;46.034;14.496;2022-12-13T14:51:23;97645.16;;;-0.14;83.47
22259;BME280;11298;46.034;14.496;2022-12-13T14:53:54;97642.50;;;-0.14;83.58
22259;BME280;11298;46.034;14.496;2022-12-13T14:56:21;97651.81;;;-0.18;83.54
22259;BME280;11298;46.034;14.496;2022-12-13T14:58:58;97654.66;;;-0.20;83.53
22259;BME280;11298;46.034;14.496;2022-12-13T15:01:28;97652.66;;;-0.18;83.71
22259;BME280;11298;46.034;14.496;2022-12-13T15:06:41;97648.47;;;-0.20;83.33
22259;BME280;11298;46.034;14.496;2022-12-13T15:09:14;97647.28;;;-0.26;83.67
22259;BME280;11298;46.034;14.496;2022-12-13T15:11:42;97651.09;;;-0.28;83.74